الصفحة الرئيسية
METAR-TAF:

METAR-TAF

مطار :

مطار بويرتو برينسيسا الدولي

بورتوبرنسس, الفلبين

دائرة عرض: 09-44-32N, خط طول: 118-45-31E, ارتفاع: 22 متر

مراقبة الطقس الحالي

تاريخ ووقت الإصدار 23 دقيقة قبل الساعة 09:00UTC
ريح 4 عقدة من الجنوب
درجة الحرارة 30°درجة مئوية
الرطوبة 70%
ضغط 1006 hPa
الرؤية 10 كم أو أكثر
غيوم قليلة على ارتفاع 1700 قدم, مزنة ركامية.
غيوم متفرقة على ارتفاع 1900 قدم
غيوم مفككة على ارتفاع 8000 قدم

METAR: RPVP 220900Z 18004KT 9999 FEW017CB SCT019 BKN080 30/24 Q1006 RMK A2971 CB NW

زمن: 17:23 (09:23 UTC)

توقعات

تاريخ ووقت الإصدار 4ساعات و 23 دقيقة قبل الساعة 05:00UTC
التوقعات صالحة من22 الساعة 06 UTC إلى 23 الساعة 06 UTC
ريح 6 عقدة من الجنوب الغربي
الرؤية 10 كم أو أكثر
غيوم قليلة على ارتفاع 1900 قدم
غيوم مفككة على ارتفاع 24000 قدم
مؤقت
من 22 الساعة 06 UTC إلى 22 الساعة 12 UTC
ريح 12 عقدة من الغرب
الرؤية: 9000 متر
غيوم قليلة على ارتفاع 1700 قدم, مزنة ركامية.
غيوم متفرقة على ارتفاع 1900 قدم
غيوم مفككة على ارتفاع 8000 قدم
عاصفة رعدية, مطر خفيف

TAF: RPVP 220500Z 2206/2306 22006KT 9999 FEW019 BKN240 TEMPO 2206/2212 27012KT 9000 -TSRA FEW017CB SCT019 BKN080

أرصاد الطقس والتوقعات من أكثر من 4000 مطار (تقارير الطقس للمطار METAR والتنبؤ بالطقس بالمطارTAF).

المحطات المتاحة هي النقط الصفراء والحمراء على الخريطة.

حرك المؤشر فوق النقطة لمعرفة اسم المحطة.

ثم انقر لمعرفة أرصاد وتوقعات الطقس.

لتغيير الخارطة: اضغط على الأزرار الخضراء مع رمز الصليب الأسود للتكبير. على الزر الأخضر مع شرطة للتصغير، أو على الأسهم الخضراء للخرائط المجاورة.


METAR-TAF: